sensor_id;sensor_type;location;lat;lon;timestamp;pressure;altitude;pressure_sealevel;temperature;humidity
78890;BME280;68279;48.964;14.502;2024-03-06T00:02:23;97002.09;;;1.26;100.00
78890;BME280;68279;48.964;14.502;2024-03-06T00:04:49;97000.94;;;1.22;100.00
78890;BME280;68279;48.964;14.502;2024-03-06T00:07:14;97004.16;;;1.24;100.00
78890;BME280;68279;48.964;14.502;2024-03-06T00:09:40;96997.94;;;1.19;100.00
78890;BME280;68279;48.964;14.502;2024-03-06T00:12:05;97004.81;;;1.20;100.00
78890;BME280;68279;48.964;14.502;2024-03-06T00:14:31;97004.25;;;1.18;100.00
78890;BME280;68279;48.964;14.502;2024-03-06T00:16:57;96995.31;;;1.00;100.00
78890;BME280;68279;48.964;14.502;2024-03-06T00:19:22;97007.53;;;0.95;100.00
78890;BME280;68279;48.964;14.502;2024-03-06T00:21:48;97005.84;;;1.00;100.00
78890;BME280;68279;48.964;14.502;2024-03-06T00:24:15;97009.28;;;1.01;100.00
78890;BME280;68279;48.964;14.502;2024-03-06T00:26:42;97011.47;;;1.04;100.00
78890;BME280;68279;48.964;14.502;2024-03-06T00:29:08;97015.81;;;0.98;100.00
78890;BME280;68279;48.964;14.502;2024-03-06T00:31:34;97019.16;;;0.87;100.00
78890;BME280;68279;48.964;14.502;2024-03-06T00:33:59;97010.88;;;0.83;100.00
78890;BME280;68279;48.964;14.502;2024-03-06T00:36:25;97014.84;;;0.74;100.00
78890;BME280;68279;48.964;14.502;2024-03-06T00:38:51;97006.78;;;0.69;100.00
78890;BME280;68279;48.964;14.502;2024-03-06T00:41:16;97015.97;;;0.60;100.00
78890;BME280;68279;48.964;14.502;2024-03-06T00:43:42;97007.94;;;0.55;100.00
78890;BME280;68279;48.964;14.502;2024-03-06T00:46:08;97007.94;;;0.55;100.00
78890;BME280;68279;48.964;14.502;2024-03-06T00:48:33;97014.81;;;0.56;100.00
78890;BME280;68279;48.964;14.502;2024-03-06T00:50:59;97018.06;;;0.51;100.00
78890;BME280;68279;48.964;14.502;2024-03-06T00:53:24;97012.81;;;0.51;100.00
78890;BME280;68279;48.964;14.502;2024-03-06T00:55:50;97018.88;;;0.52;100.00
78890;BME280;68279;48.964;14.502;2024-03-06T00:58:15;97022.94;;;0.54;100.00
78890;BME280;68279;48.964;14.502;2024-03-06T01:00:41;97023.50;;;0.56;100.00
78890;BME280;68279;48.964;14.502;2024-03-06T01:03:07;97026.66;;;0.65;100.00
78890;BME280;68279;48.964;14.502;2024-03-06T01:05:34;97027.25;;;0.67;100.00
78890;BME280;68279;48.964;14.502;2024-03-06T01:08:00;97020.53;;;0.71;100.00
78890;BME280;68279;48.964;14.502;2024-03-06T01:10:25;97024.28;;;0.82;100.00
78890;BME280;68279;48.964;14.502;2024-03-06T01:12:51;97021.78;;;0.87;100.00
78890;BME280;68279;48.964;14.502;2024-03-06T01:15:17;97023.91;;;0.97;100.00
78890;BME280;68279;48.964;14.502;2024-03-06T01:17:42;97026.84;;;1.07;100.00
78890;BME280;68279;48.964;14.502;2024-03-06T01:20:08;97027.84;;;1.06;100.00
78890;BME280;68279;48.964;14.502;2024-03-06T01:22:34;97031.38;;;1.00;100.00
78890;BME280;68279;48.964;14.502;2024-03-06T01:25:00;97033.50;;;0.91;100.00
78890;BME280;68279;48.964;14.502;2024-03-06T01:27:27;97029.78;;;0.99;100.00
78890;BME280;68279;48.964;14.502;2024-03-06T01:29:52;97035.97;;;1.04;100.00
78890;BME280;68279;48.964;14.502;2024-03-06T01:32:18;97040.38;;;1.10;100.00
78890;BME280;68279;48.964;14.502;2024-03-06T01:34:43;97035.03;;;1.17;100.00
78890;BME280;68279;48.964;14.502;2024-03-06T01:37:09;97035.09;;;1.10;100.00
78890;BME280;68279;48.964;14.502;2024-03-06T01:39:34;97037.38;;;1.07;100.00
78890;BME280;68279;48.964;14.502;2024-03-06T01:42:01;97040.59;;;1.09;100.00
78890;BME280;68279;48.964;14.502;2024-03-06T01:44:27;97048.63;;;1.14;100.00
78890;BME280;68279;48.964;14.502;2024-03-06T01:46:53;97037.97;;;1.09;100.00
78890;BME280;68279;48.964;14.502;2024-03-06T01:49:20;97045.94;;;1.21;100.00
78890;BME280;68279;48.964;14.502;2024-03-06T01:51:52;97047.41;;;1.17;100.00
78890;BME280;68279;48.964;14.502;2024-03-06T01:54:19;97050.91;;;1.29;100.00
78890;BME280;68279;48.964;14.502;2024-03-06T01:56:46;97055.06;;;1.36;100.00
78890;BME280;68279;48.964;14.502;2024-03-06T01:59:13;97057.19;;;1.46;100.00
78890;BME280;68279;48.964;14.502;2024-03-06T02:01:41;97049.59;;;1.38;100.00
78890;BME280;68279;48.964;14.502;2024-03-06T02:04:08;97053.59;;;1.22;100.00
78890;BME280;68279;48.964;14.502;2024-03-06T02:06:35;97051.13;;;1.09;100.00
78890;BME280;68279;48.964;14.502;2024-03-06T02:09:01;97056.00;;;1.05;100.00
78890;BME280;68279;48.964;14.502;2024-03-06T02:11:28;97055.44;;;1.22;100.00
78890;BME280;68279;48.964;14.502;2024-03-06T02:13:55;97058.81;;;1.29;100.00
78890;BME280;68279;48.964;14.502;2024-03-06T02:16:20;97060.63;;;1.28;100.00
78890;BME280;68279;48.964;14.502;2024-03-06T02:18:52;97058.00;;;1.28;100.00
78890;BME280;68279;48.964;14.502;2024-03-06T02:21:20;97059.78;;;1.34;100.00
78890;BME280;68279;48.964;14.502;2024-03-06T02:23:45;97062.09;;;1.42;100.00
78890;BME280;68279;48.964;14.502;2024-03-06T02:26:11;97057.94;;;1.35;100.00
78890;BME280;68279;48.964;14.502;2024-03-06T02:28:37;97060.06;;;1.45;100.00
78890;BME280;68279;48.964;14.502;2024-03-06T02:31:02;97057.41;;;1.45;100.00
78890;BME280;68279;48.964;14.502;2024-03-06T02:33:29;97058.22;;;1.27;100.00
78890;BME280;68279;48.964;14.502;2024-03-06T02:35:54;97057.78;;;1.30;100.00
78890;BME280;68279;48.964;14.502;2024-03-06T02:38:20;97062.69;;;1.26;100.00
78890;BME280;68279;48.964;14.502;2024-03-06T02:40:46;97058.75;;;1.17;100.00
78890;BME280;68279;48.964;14.502;2024-03-06T02:43:11;97059.09;;;1.02;100.00
78890;BME280;68279;48.964;14.502;2024-03-06T02:45:37;97059.31;;;1.01;100.00
78890;BME280;68279;48.964;14.502;2024-03-06T02:48:03;97065.31;;;1.08;100.00
78890;BME280;68279;48.964;14.502;2024-03-06T02:50:28;97066.72;;;1.10;100.00
78890;BME280;68279;48.964;14.502;2024-03-06T02:52:54;97059.63;;;1.11;100.00
78890;BME280;68279;48.964;14.502;2024-03-06T02:55:21;97060.28;;;1.25;100.00
78890;BME280;68279;48.964;14.502;2024-03-06T02:57:46;97062.41;;;1.34;100.00
78890;BME280;68279;48.964;14.502;2024-03-06T03:00:12;97063.06;;;1.30;100.00
78890;BME280;68279;48.964;14.502;2024-03-06T03:02:41;97067.06;;;1.32;100.00
78890;BME280;68279;48.964;14.502;2024-03-06T03:05:08;97054.91;;;1.31;100.00
78890;BME280;68279;48.964;14.502;2024-03-06T03:07:34;97063.28;;;1.28;100.00
78890;BME280;68279;48.964;14.502;2024-03-06T03:09:59;97064.59;;;1.37;100.00
78890;BME280;68279;48.964;14.502;2024-03-06T03:12:25;97069.41;;;1.40;100.00
78890;BME280;68279;48.964;14.502;2024-03-06T03:14:51;97061.34;;;1.54;100.00
78890;BME280;68279;48.964;14.502;2024-03-06T03:17:18;97062.97;;;1.55;100.00
78890;BME280;68279;48.964;14.502;2024-03-06T03:19:45;97065.53;;;1.61;100.00
78890;BME280;68279;48.964;14.502;2024-03-06T03:22:10;97062.88;;;1.61;100.00
78890;BME280;68279;48.964;14.502;2024-03-06T03:24:36;97062.44;;;1.64;100.00
78890;BME280;68279;48.964;14.502;2024-03-06T03:27:05;97075.16;;;1.67;100.00
78890;BME280;68279;48.964;14.502;2024-03-06T03:29:30;97068.34;;;1.78;100.00
78890;BME280;68279;48.964;14.502;2024-03-06T03:31:56;97064.91;;;1.78;100.00
78890;BME280;68279;48.964;14.502;2024-03-06T03:34:23;97072.31;;;1.69;100.00
78890;BME280;68279;48.964;14.502;2024-03-06T03:36:48;97070.63;;;1.75;100.00
78890;BME280;68279;48.964;14.502;2024-03-06T03:39:14;97077.16;;;1.72;100.00
78890;BME280;68279;48.964;14.502;2024-03-06T03:41:44;97078.19;;;1.71;100.00
78890;BME280;68279;48.964;14.502;2024-03-06T03:44:14;97073.81;;;1.77;100.00
78890;BME280;68279;48.964;14.502;2024-03-06T03:46:40;97072.94;;;1.83;100.00
78890;BME280;68279;48.964;14.502;2024-03-06T03:49:06;97070.22;;;1.89;100.00
78890;BME280;68279;48.964;14.502;2024-03-06T03:51:31;97068.25;;;1.85;100.00
78890;BME280;68279;48.964;14.502;2024-03-06T03:53:57;97074.31;;;1.85;100.00
78890;BME280;68279;48.964;14.502;2024-03-06T03:56:23;97076.75;;;1.87;100.00
78890;BME280;68279;48.964;14.502;2024-03-06T03:58:48;97064.47;;;1.81;100.00
78890;BME280;68279;48.964;14.502;2024-03-06T04:01:14;97082.72;;;1.94;100.00
78890;BME280;68279;48.964;14.502;2024-03-06T04:03:40;97083.75;;;1.93;100.00
78890;BME280;68279;48.964;14.502;2024-03-06T04:06:08;97069.41;;;1.89;100.00
78890;BME280;68279;48.964;14.502;2024-03-06T04:08:34;97065.53;;;1.91;100.00
78890;BME280;68279;48.964;14.502;2024-03-06T04:10:59;97070.94;;;1.96;100.00
78890;BME280;68279;48.964;14.502;2024-03-06T04:13:25;97084.78;;;1.92;100.00
78890;BME280;68279;48.964;14.502;2024-03-06T04:15:51;97081.56;;;1.90;100.00
78890;BME280;68279;48.964;14.502;2024-03-06T04:18:17;97078.91;;;1.78;100.00
78890;BME280;68279;48.964;14.502;2024-03-06T04:20:42;97082.34;;;1.79;100.00
78890;BME280;68279;48.964;14.502;2024-03-06T04:23:09;97083.06;;;1.86;100.00
78890;BME280;68279;48.964;14.502;2024-03-06T04:25:34;97083.19;;;1.91;100.00
78890;BME280;68279;48.964;14.502;2024-03-06T04:28:02;97087.00;;;1.95;100.00
78890;BME280;68279;48.964;14.502;2024-03-06T04:30:27;97083.59;;;2.06;100.00
78890;BME280;68279;48.964;14.502;2024-03-06T04:32:53;97082.66;;;2.01;100.00
78890;BME280;68279;48.964;14.502;2024-03-06T04:35:19;97088.59;;;1.96;100.00
78890;BME280;68279;48.964;14.502;2024-03-06T04:37:45;97086.31;;;1.99;100.00
78890;BME280;68279;48.964;14.502;2024-03-06T04:40:10;97091.09;;;1.91;100.00
78890;BME280;68279;48.964;14.502;2024-03-06T04:42:40;97089.16;;;1.86;100.00
78890;BME280;68279;48.964;14.502;2024-03-06T04:45:13;97095.78;;;1.89;100.00
78890;BME280;68279;48.964;14.502;2024-03-06T04:47:41;97096.13;;;1.92;100.00
78890;BME280;68279;48.964;14.502;2024-03-06T04:50:11;97110.28;;;1.98;100.00
78890;BME280;68279;48.964;14.502;2024-03-06T04:52:40;97115.91;;;2.02;100.00
78890;BME280;68279;48.964;14.502;2024-03-06T04:55:06;97111.03;;;1.87;100.00
78890;BME280;68279;48.964;14.502;2024-03-06T04:57:34;97112.66;;;1.88;100.00
78890;BME280;68279;48.964;14.502;2024-03-06T04:59:59;97106.69;;;1.92;100.00
78890;BME280;68279;48.964;14.502;2024-03-06T05:02:27;97114.88;;;2.03;100.00
78890;BME280;68279;48.964;14.502;2024-03-06T05:04:53;97116.50;;;2.04;100.00
78890;BME280;68279;48.964;14.502;2024-03-06T05:07:19;97119.94;;;2.04;100.00
78890;BME280;68279;48.964;14.502;2024-03-06T05:09:44;97122.59;;;2.04;100.00
78890;BME280;68279;48.964;14.502;2024-03-06T05:12:10;97121.25;;;2.13;100.00
78890;BME280;68279;48.964;14.502;2024-03-06T05:14:36;97125.25;;;2.16;100.00
78890;BME280;68279;48.964;14.502;2024-03-06T05:17:02;97122.13;;;2.07;100.00
78890;BME280;68279;48.964;14.502;2024-03-06T05:19:28;97120.16;;;2.03;100.00
78890;BME280;68279;48.964;14.502;2024-03-06T05:21:58;97124.00;;;2.18;100.00
78890;BME280;68279;48.964;14.502;2024-03-06T05:24:25;97122.66;;;2.27;100.00
78890;BME280;68279;48.964;14.502;2024-03-06T05:26:50;97124.06;;;2.30;100.00
78890;BME280;68279;48.964;14.502;2024-03-06T05:29:16;97124.91;;;2.12;100.00
78890;BME280;68279;48.964;14.502;2024-03-06T05:31:42;97127.66;;;2.17;100.00
78890;BME280;68279;48.964;14.502;2024-03-06T05:34:07;97132.06;;;2.23;100.00
78890;BME280;68279;48.964;14.502;2024-03-06T05:36:33;97124.91;;;2.12;100.00
78890;BME280;68279;48.964;14.502;2024-03-06T05:38:59;97122.66;;;2.27;100.00
78890;BME280;68279;48.964;14.502;2024-03-06T05:41:24;97132.97;;;2.29;100.00
78890;BME280;68279;48.964;14.502;2024-03-06T05:43:50;97142.88;;;2.34;100.00
78890;BME280;68279;48.964;14.502;2024-03-06T05:46:16;97140.50;;;2.44;100.00
78890;BME280;68279;48.964;14.502;2024-03-06T05:48:42;97140.50;;;2.55;100.00
78890;BME280;68279;48.964;14.502;2024-03-06T05:51:07;97140.97;;;2.52;100.00
78890;BME280;68279;48.964;14.502;2024-03-06T05:53:37;97136.00;;;2.44;100.00
78890;BME280;68279;48.964;14.502;2024-03-06T05:56:05;97145.91;;;2.49;100.00
78890;BME280;68279;48.964;14.502;2024-03-06T05:58:31;97145.19;;;2.42;100.00
78890;BME280;68279;48.964;14.502;2024-03-06T06:00:57;97142.47;;;2.48;100.00
78890;BME280;68279;48.964;14.502;2024-03-06T06:03:22;97156.03;;;2.64;100.00
78890;BME280;68279;48.964;14.502;2024-03-06T06:05:48;97148.09;;;2.64;100.00
78890;BME280;68279;48.964;14.502;2024-03-06T06:08:13;97157.88;;;2.63;100.00
78890;BME280;68279;48.964;14.502;2024-03-06T06:10:39;97163.63;;;2.72;100.00
78890;BME280;68279;48.964;14.502;2024-03-06T06:13:05;97161.03;;;2.83;100.00
78890;BME280;68279;48.964;14.502;2024-03-06T06:15:30;97155.38;;;2.80;100.00
78890;BME280;68279;48.964;14.502;2024-03-06T06:17:56;97166.41;;;2.77;100.00
78890;BME280;68279;48.964;14.502;2024-03-06T06:20:22;97165.59;;;2.76;100.00
78890;BME280;68279;48.964;14.502;2024-03-06T06:22:47;97163.19;;;2.87;100.00
78890;BME280;68279;48.964;14.502;2024-03-06T06:25:13;97174.34;;;3.00;100.00
78890;BME280;68279;48.964;14.502;2024-03-06T06:27:40;97171.59;;;3.07;100.00
78890;BME280;68279;48.964;14.502;2024-03-06T06:30:06;97174.72;;;3.04;100.00
78890;BME280;68279;48.964;14.502;2024-03-06T06:32:37;97176.19;;;3.00;100.00
78890;BME280;68279;48.964;14.502;2024-03-06T06:35:06;97178.41;;;3.15;100.00
78890;BME280;68279;48.964;14.502;2024-03-06T06:37:32;97183.69;;;3.26;100.00
78890;BME280;68279;48.964;14.502;2024-03-06T06:39:59;97187.47;;;3.30;100.00
78890;BME280;68279;48.964;14.502;2024-03-06T06:42:25;97191.84;;;3.48;100.00
78890;BME280;68279;48.964;14.502;2024-03-06T06:44:51;97186.22;;;3.45;100.00
78890;BME280;68279;48.964;14.502;2024-03-06T06:47:17;97193.25;;;3.27;100.00
78890;BME280;68279;48.964;14.502;2024-03-06T06:49:42;97183.94;;;3.36;100.00
78890;BME280;68279;48.964;14.502;2024-03-06T06:52:10;97188.75;;;3.28;100.00
78890;BME280;68279;48.964;14.502;2024-03-06T06:54:35;97194.38;;;3.43;100.00
78890;BME280;68279;48.964;14.502;2024-03-06T06:57:01;97193.78;;;3.64;100.00
78890;BME280;68279;48.964;14.502;2024-03-06T06:59:28;97194.25;;;3.73;100.00
78890;BME280;68279;48.964;14.502;2024-03-06T07:01:54;97187.91;;;3.74;100.00
78890;BME280;68279;48.964;14.502;2024-03-06T07:04:20;97192.13;;;3.98;100.00
78890;BME280;68279;48.964;14.502;2024-03-06T07:06:46;97193.47;;;4.13;100.00
78890;BME280;68279;48.964;14.502;2024-03-06T07:09:12;97199.06;;;4.28;100.00
78890;BME280;68279;48.964;14.502;2024-03-06T07:11:40;97201.28;;;4.19;100.00
78890;BME280;68279;48.964;14.502;2024-03-06T07:14:07;97202.31;;;4.18;100.00
78890;BME280;68279;48.964;14.502;2024-03-06T07:16:32;97203.59;;;4.16;100.00
78890;BME280;68279;48.964;14.502;2024-03-06T07:18:58;97210.19;;;4.42;100.00
78890;BME280;68279;48.964;14.502;2024-03-06T07:21:25;97207.44;;;4.37;100.00
78890;BME280;68279;48.964;14.502;2024-03-06T07:23:51;97212.34;;;4.45;100.00
78890;BME280;68279;48.964;14.502;2024-03-06T07:26:16;97209.91;;;4.55;100.00
78890;BME280;68279;48.964;14.502;2024-03-06T07:28:42;97214.34;;;4.38;100.00
78890;BME280;68279;48.964;14.502;2024-03-06T07:31:08;97216.41;;;4.07;100.00
78890;BME280;68279;48.964;14.502;2024-03-06T07:33:33;97208.66;;;4.06;100.00
78890;BME280;68279;48.964;14.502;2024-03-06T07:36:03;97213.34;;;4.27;100.00
78890;BME280;68279;48.964;14.502;2024-03-06T07:38:29;97209.59;;;4.11;100.00
78890;BME280;68279;48.964;14.502;2024-03-06T07:40:54;97218.44;;;4.05;100.00
78890;BME280;68279;48.964;14.502;2024-03-06T07:43:20;97221.84;;;4.29;100.00
78890;BME280;68279;48.964;14.502;2024-03-06T07:45:45;97222.06;;;4.84;100.00
78890;BME280;68279;48.964;14.502;2024-03-06T07:48:12;97222.16;;;4.90;100.00
78890;BME280;68279;48.964;14.502;2024-03-06T07:50:38;97228.19;;;5.02;100.00
78890;BME280;68279;48.964;14.502;2024-03-06T07:53:05;97229.25;;;5.18;100.00
78890;BME280;68279;48.964;14.502;2024-03-06T07:55:30;97233.28;;;5.20;100.00
78890;BME280;68279;48.964;14.502;2024-03-06T07:57:56;97229.81;;;5.03;100.00
78890;BME280;68279;48.964;14.502;2024-03-06T08:00:22;97237.22;;;5.18;100.00
78890;BME280;68279;48.964;14.502;2024-03-06T08:02:48;97231.75;;;5.24;100.00
78890;BME280;68279;48.964;14.502;2024-03-06T08:05:15;97237.56;;;5.21;100.00
78890;BME280;68279;48.964;14.502;2024-03-06T08:07:41;97239.06;;;5.34;100.00
78890;BME280;68279;48.964;14.502;2024-03-06T08:10:09;97243.72;;;5.44;100.00
78890;BME280;68279;48.964;14.502;2024-03-06T08:12:41;97242.03;;;5.37;100.00
78890;BME280;68279;48.964;14.502;2024-03-06T08:15:09;97254.84;;;5.40;100.00
78890;BME280;68279;48.964;14.502;2024-03-06T08:17:35;97250.88;;;5.26;100.00
78890;BME280;68279;48.964;14.502;2024-03-06T08:20:04;97249.94;;;5.49;100.00
78890;BME280;68279;48.964;14.502;2024-03-06T08:22:34;97249.19;;;5.71;100.00
78890;BME280;68279;48.964;14.502;2024-03-06T08:25:07;97254.88;;;5.79;100.00
78890;BME280;68279;48.964;14.502;2024-03-06T08:27:33;97252.34;;;6.06;100.00
78890;BME280;68279;48.964;14.502;2024-03-06T08:29:59;97255.41;;;6.15;100.00
78890;BME280;68279;48.964;14.502;2024-03-06T08:32:24;97255.91;;;6.12;100.00
78890;BME280;68279;48.964;14.502;2024-03-06T08:34:50;97256.91;;;6.28;100.00
78890;BME280;68279;48.964;14.502;2024-03-06T08:37:16;97259.94;;;6.36;100.00
78890;BME280;68279;48.964;14.502;2024-03-06T08:39:41;97268.50;;;6.43;100.00
78890;BME280;68279;48.964;14.502;2024-03-06T08:42:07;97273.06;;;6.48;100.00
78890;BME280;68279;48.964;14.502;2024-03-06T08:44:33;97257.88;;;6.43;100.00
78890;BME280;68279;48.964;14.502;2024-03-06T08:46:59;97267.44;;;6.44;100.00
78890;BME280;68279;48.964;14.502;2024-03-06T08:49:25;97267.56;;;6.33;100.00
78890;BME280;68279;48.964;14.502;2024-03-06T08:51:50;97272.50;;;6.24;100.00
78890;BME280;68279;48.964;14.502;2024-03-06T08:54:16;97273.22;;;6.36;100.00
78890;BME280;68279;48.964;14.502;2024-03-06T08:56:43;97271.09;;;6.38;100.00
78890;BME280;68279;48.964;14.502;2024-03-06T08:59:09;97271.97;;;6.22;100.00
78890;BME280;68279;48.964;14.502;2024-03-06T09:01:34;97274.06;;;6.20;100.00
78890;BME280;68279;48.964;14.502;2024-03-06T09:04:00;97272.16;;;6.37;100.00
78890;BME280;68279;48.964;14.502;2024-03-06T09:06:26;97276.72;;;6.42;100.00
78890;BME280;68279;48.964;14.502;2024-03-06T09:08:52;97279.81;;;6.56;100.00
78890;BME280;68279;48.964;14.502;2024-03-06T09:11:18;97278.66;;;6.46;100.00
78890;BME280;68279;48.964;14.502;2024-03-06T09:13:43;97279.41;;;6.69;100.00
78890;BME280;68279;48.964;14.502;2024-03-06T09:16:09;97284.84;;;6.79;100.00
78890;BME280;68279;48.964;14.502;2024-03-06T09:18:35;97283.78;;;7.02;100.00
78890;BME280;68279;48.964;14.502;2024-03-06T09:21:00;97287.88;;;7.15;100.00
78890;BME280;68279;48.964;14.502;2024-03-06T09:23:27;97289.59;;;6.99;100.00
78890;BME280;68279;48.964;14.502;2024-03-06T09:25:55;97293.94;;;6.83;100.00
78890;BME280;68279;48.964;14.502;2024-03-06T09:28:21;97291.84;;;6.85;100.00
78890;BME280;68279;48.964;14.502;2024-03-06T09:30:48;97294.75;;;6.62;99.28
78890;BME280;68279;48.964;14.502;2024-03-06T09:33:13;97287.13;;;6.70;99.62
78890;BME280;68279;48.964;14.502;2024-03-06T09:35:39;97295.91;;;6.93;100.00
78890;BME280;68279;48.964;14.502;2024-03-06T09:38:11;97295.25;;;6.80;99.31
78890;BME280;68279;48.964;14.502;2024-03-06T09:40:38;97291.38;;;6.93;99.98
78890;BME280;68279;48.964;14.502;2024-03-06T09:43:06;97288.88;;;6.81;100.00
78890;BME280;68279;48.964;14.502;2024-03-06T09:45:32;97289.09;;;6.80;100.00
78890;BME280;68279;48.964;14.502;2024-03-06T09:47:58;97286.97;;;7.31;100.00
78890;BME280;68279;48.964;14.502;2024-03-06T09:50:24;97290.84;;;7.50;100.00
78890;BME280;68279;48.964;14.502;2024-03-06T09:52:51;97293.69;;;7.38;97.03
78890;BME280;68279;48.964;14.502;2024-03-06T09:55:18;97296.59;;;7.37;94.65
78890;BME280;68279;48.964;14.502;2024-03-06T09:57:43;97282.84;;;7.82;94.07
78890;BME280;68279;48.964;14.502;2024-03-06T10:00:09;97287.72;;;7.58;95.55
78890;BME280;68279;48.964;14.502;2024-03-06T10:02:39;97288.44;;;7.49;94.71
78890;BME280;68279;48.964;14.502;2024-03-06T10:05:20;97282.72;;;7.67;93.93
78890;BME280;68279;48.964;14.502;2024-03-06T10:07:46;97275.41;;;7.84;94.06
78890;BME280;68279;48.964;14.502;2024-03-06T10:10:11;97280.66;;;7.74;94.08
78890;BME280;68279;48.964;14.502;2024-03-06T10:12:39;97281.78;;;7.78;93.27
78890;BME280;68279;48.964;14.502;2024-03-06T10:15:05;97283.06;;;8.13;91.72
78890;BME280;68279;48.964;14.502;2024-03-06T10:17:31;97285.72;;;8.18;90.53
78890;BME280;68279;48.964;14.502;2024-03-06T10:19:56;97290.97;;;8.45;87.66
78890;BME280;68279;48.964;14.502;2024-03-06T10:22:26;97286.94;;;8.37;91.31
78890;BME280;68279;48.964;14.502;2024-03-06T10:24:55;97278.22;;;8.10;91.78
78890;BME280;68279;48.964;14.502;2024-03-06T10:27:24;97283.22;;;8.43;91.77
78890;BME280;68279;48.964;14.502;2024-03-06T10:30:10;97279.94;;;7.84;95.20
78890;BME280;68279;48.964;14.502;2024-03-06T10:32:39;97282.25;;;7.70;95.37
78890;BME280;68279;48.964;14.502;2024-03-06T10:35:05;97291.19;;;7.27;98.13
78890;BME280;68279;48.964;14.502;2024-03-06T10:37:34;97288.16;;;7.45;96.30
78890;BME280;68279;48.964;14.502;2024-03-06T10:40:02;97283.75;;;7.29;95.32
78890;BME280;68279;48.964;14.502;2024-03-06T10:42:37;97286.59;;;7.17;96.21
78890;BME280;68279;48.964;14.502;2024-03-06T10:45:04;97286.25;;;7.14;99.15
78890;BME280;68279;48.964;14.502;2024-03-06T10:47:31;97279.59;;;7.38;94.94
78890;BME280;68279;48.964;14.502;2024-03-06T10:49:59;97282.16;;;7.28;95.53
78890;BME280;68279;48.964;14.502;2024-03-06T10:52:26;97282.31;;;7.43;95.68
78890;BME280;68279;48.964;14.502;2024-03-06T10:54:53;97286.63;;;7.54;95.94
78890;BME280;68279;48.964;14.502;2024-03-06T10:57:20;97287.00;;;7.68;95.90
78890;BME280;68279;48.964;14.502;2024-03-06T10:59:45;97280.53;;;7.59;94.68
78890;BME280;68279;48.964;14.502;2024-03-06T11:02:11;97282.63;;;7.52;94.26
78890;BME280;68279;48.964;14.502;2024-03-06T11:04:39;97288.63;;;7.69;93.16
78890;BME280;68279;48.964;14.502;2024-03-06T11:07:05;97276.91;;;7.70;89.97
78890;BME280;68279;48.964;14.502;2024-03-06T11:09:36;97282.97;;;8.03;90.29
78890;BME280;68279;48.964;14.502;2024-03-06T11:12:04;97285.16;;;7.69;90.41
78890;BME280;68279;48.964;14.502;2024-03-06T11:14:32;97286.47;;;7.66;91.19
78890;BME280;68279;48.964;14.502;2024-03-06T11:17:10;97286.31;;;7.83;90.38
78890;BME280;68279;48.964;14.502;2024-03-06T11:28:29;97281.56;;;7.53;90.50
78890;BME280;68279;48.964;14.502;2024-03-06T11:30:56;97278.72;;;7.64;92.02
78890;BME280;68279;48.964;14.502;2024-03-06T11:33:45;97281.66;;;7.68;91.42
78890;BME280;68279;48.964;14.502;2024-03-06T11:38:52;97275.59;;;8.15;87.00
78890;BME280;68279;48.964;14.502;2024-03-06T11:41:26;97277.47;;;8.67;88.00
78890;BME280;68279;48.964;14.502;2024-03-06T11:43:55;97267.63;;;8.77;86.03
78890;BME280;68279;48.964;14.502;2024-03-06T11:46:21;97270.50;;;8.61;83.75
78890;BME280;68279;48.964;14.502;2024-03-06T11:48:54;97271.38;;;8.82;84.72
78890;BME280;68279;48.964;14.502;2024-03-06T11:51:21;97271.53;;;8.55;84.13
78890;BME280;68279;48.964;14.502;2024-03-06T11:53:52;97273.66;;;8.47;86.39
78890;BME280;68279;48.964;14.502;2024-03-06T11:56:19;97266.88;;;8.30;86.61
78890;BME280;68279;48.964;14.502;2024-03-06T11:58:45;97267.31;;;8.11;86.60
78890;BME280;68279;48.964;14.502;2024-03-06T12:01:11;97271.66;;;8.28;87.23
78890;BME280;68279;48.964;14.502;2024-03-06T12:03:37;97270.84;;;8.22;84.97
78890;BME280;68279;48.964;14.502;2024-03-06T12:06:02;97279.56;;;8.07;87.33
78890;BME280;68279;48.964;14.502;2024-03-06T12:08:28;97269.97;;;8.11;87.51
78890;BME280;68279;48.964;14.502;2024-03-06T12:10:55;97273.81;;;7.83;88.32
78890;BME280;68279;48.964;14.502;2024-03-06T12:13:24;97269.47;;;7.72;90.07
78890;BME280;68279;48.964;14.502;2024-03-06T12:15:50;97270.53;;;7.71;89.42
78890;BME280;68279;48.964;14.502;2024-03-06T12:18:17;97274.28;;;7.75;89.53
78890;BME280;68279;48.964;14.502;2024-03-06T12:20:44;97266.63;;;7.84;88.39
78890;BME280;68279;48.964;14.502;2024-03-06T12:23:21;97267.75;;;7.93;88.66
78890;BME280;68279;48.964;14.502;2024-03-06T12:26:05;97261.22;;;8.21;88.70
78890;BME280;68279;48.964;14.502;2024-03-06T12:28:32;97265.69;;;8.05;88.28
78890;BME280;68279;48.964;14.502;2024-03-06T12:30:57;97258.25;;;8.07;88.30
78890;BME280;68279;48.964;14.502;2024-03-06T12:33:26;97258.44;;;7.95;86.74
78890;BME280;68279;48.964;14.502;2024-03-06T12:36:05;97255.38;;;7.77;88.68
78890;BME280;68279;48.964;14.502;2024-03-06T12:38:32;97261.50;;;7.77;88.21
78890;BME280;68279;48.964;14.502;2024-03-06T12:40:59;97263.44;;;7.50;89.63
78890;BME280;68279;48.964;14.502;2024-03-06T12:43:25;97259.38;;;7.74;90.00
78890;BME280;68279;48.964;14.502;2024-03-06T12:45:51;97253.25;;;7.74;89.80
78890;BME280;68279;48.964;14.502;2024-03-06T12:48:21;97259.56;;;7.67;89.27
78890;BME280;68279;48.964;14.502;2024-03-06T12:50:46;97264.91;;;7.67;88.57
78890;BME280;68279;48.964;14.502;2024-03-06T12:53:18;97259.56;;;7.62;86.47
78890;BME280;68279;48.964;14.502;2024-03-06T12:55:44;97253.97;;;7.64;86.45
78890;BME280;68279;48.964;14.502;2024-03-06T12:58:13;97251.09;;;7.71;87.65
78890;BME280;68279;48.964;14.502;2024-03-06T13:00:40;97250.28;;;7.70;85.42
78890;BME280;68279;48.964;14.502;2024-03-06T13:03:06;97252.72;;;7.77;84.96